Time;durP1;ratioP1;P1;durP2;ratioP2;P2;SDS_P1;SDS_P2;PMS_P1;PMS_P2;Temp;Humidity;BMP_temperature;BMP_pressure;BME280_temperature;BME280_humidity;BME280_pressure;Samples;Min_cycle;Max_cycle;Signal;HPM_P1;HPM_P2
2022/05/04 02:57:05;;;;;;;;;;;;;;;;;;217976;29;1750;-76
2022/05/04 02:57:15;;;;;;;;;;;;;;;;;;337001;29;1560;-76
2022/05/04 02:57:26;;;;;;;;;;;;;;;;;;339583;29;1411;-76
2022/05/04 02:57:36;;;;;;;;;;;;;;;;;;340133;29;1319;-76
2022/05/04 02:57:46;;;;;;;;;;;;;;;;;;339333;29;941;-76
2022/05/04 02:57:56;;;;;;;;;;;;;;;;;;339378;29;984;-76
2022/05/04 02:58:06;;;;;;;;;;;;;;;;;;339124;29;1427;-76
2022/05/04 02:58:17;;;;;;;;;;;;;;;;;;339946;29;1375;-76
2022/05/04 02:58:27;;;;;;;;;;;;;;;;;;340297;29;843;-74
2022/05/04 02:58:37;;;;;;;;;;;;;;;;;;340656;29;1008;-74
2022/05/04 02:58:51;;;;;;;;;;;;;;;;;;340720;29;997;-74
2022/05/04 02:59:02;;;;;;;;;;;;;;;;;;339916;29;1109;-74
2022/05/04 02:59:12;;;;;;;;;;;;;;;;;;339315;29;910;-74
2022/05/04 02:59:22;;;;;;;;;;;;;;;;;;339392;29;910;-74
2022/05/04 02:59:32;;;;;;;;;;;;;;;;;;339184;29;986;-74
2022/05/04 02:59:42;;;;;;;;;;;;;;;;;;337802;29;1307;-75
2022/05/04 02:59:53;;;;;;;;;;;;;;;;;;337984;29;985;-74
2022/05/04 03:00:03;;;;;;;;;;;;;;;;;;337953;29;836;-74
2022/05/04 03:00:14;;;;;;;;;;;;;;;;;;337911;29;1137;-74
2022/05/04 03:00:25;;;;;;;;;;;;;;;;;;337993;29;928;-76
2022/05/04 03:00:35;;;;;;;;;;;;;;;;;;338020;29;834;-75
2022/05/04 03:00:45;;;;;;;;;;;;;;;;;;337998;29;974;-74
2022/05/04 03:02:26;;;;;;;;;;;;;;;;;;337943;29;1060;-74
2022/05/04 03:02:33;;;;;;;;;;;;;;;;;;339035;29;1915;-74
2022/05/04 03:02:44;;;;;;;;;;;;;;;;;;339322;29;1072;-74
2022/05/04 03:02:57;;;;;;;;;;;;;;;;;;339356;29;981;-74
2022/05/04 03:03:07;;;;;;;;;;;;;;;;;;339186;29;1922;-74
2022/05/04 03:03:18;;;;;;;;;;;;;;;;;;339405;29;1068;-74
2022/05/04 03:03:28;;;;;;;;;;;;;;;;;;339336;29;977;-74
2022/05/04 03:03:38;;;;;;;;;;;;;;;;;;339156;29;1575;-74
2022/05/04 03:03:48;;;;;;;;;;;;;;;;;;339264;29;930;-74
2022/05/04 03:03:59;;;;;;;;;;;;;;;;;;339287;29;1356;-74
2022/05/04 03:04:09;;;;;;;;;;;;;;;;;;339381;29;969;-74
2022/05/04 03:04:20;;;;;;;;;;;;;;;;;;338463;29;1606;-74
2022/05/04 03:04:30;;;;;;;;;;;;;;;;;;340397;29;708;-74
2022/05/04 03:04:40;;;;;;;;;;;;;;;;;;340675;29;968;-74
2022/05/04 03:04:50;;;;;;;;;;;;;;;;;;340638;29;933;-74
2022/05/04 03:05:02;;;;;;;;;;;;;;;;;;340557;29;1141;-74
2022/05/04 03:05:14;;;;;;;;;;;;;;;;;;340674;29;823;-74
2022/05/04 03:05:24;;;;;;;;;;;;;;;;;;340713;29;790;-74
2022/05/04 03:05:34;;;;;;;;;;;;;;;;;;340654;29;937;-74
2022/05/04 03:05:44;;;;;;;;;;;;;;;;;;340634;29;902;-74
2022/05/04 03:05:54;;;;;;;;;;;;;;;;;;340698;29;846;-74
2022/05/04 03:06:05;;;;;;;;;;;;;;;;;;340634;29;933;-74
2022/05/04 03:06:15;;;;;;;;;;;;;;;;;;340683;29;791;-75
2022/05/04 03:06:25;;;;;;;;;;;;;;;;;;340539;29;934;-75
2022/05/04 03:06:36;;;;;;;;;;;;;;;;;;340663;29;1000;-75
2022/05/04 03:06:47;;;;;;;;;;;;;;;;;;340608;29;910;-75
2022/05/04 03:06:57;;;;;;;;;;;;;;;;;;340557;29;933;-75
2022/05/04 03:07:07;;;;;;;;;;;;;;;;;;340634;29;836;-75
2022/05/04 03:07:18;;;;;;;;;;;;;;;;;;339529;29;1320;-75
2022/05/04 03:07:28;;;;;;;;;;;;;;;;;;338960;29;1597;-75
2022/05/04 03:07:38;;;;;;;;;;;;;;;;;;340031;29;950;-75
2022/05/04 03:07:48;;;;;;;;;;;;;;;;;;340342;29;1124;-75
2022/05/04 03:07:58;;;;;;;;;;;;;;;;;;340667;29;829;-75
2022/05/04 03:08:09;;;;;;;;;;;;;;;;;;340680;29;980;-75
2022/05/04 03:08:20;;;;;;;;;;;;;;;;;;340620;29;1028;-75
2022/05/04 03:08:30;;;;;;;;;;;;;;;;;;340653;29;814;-75
2022/05/04 03:08:40;;;;;;;;;;;;;;;;;;340673;29;917;-75
2022/05/04 03:08:50;;;;;;;;;;;;;;;;;;340602;29;945;-75
2022/05/04 03:09:01;;;;;;;;;;;;;;;;;;340651;29;1052;-75
2022/05/04 03:09:12;;;;;;;;;;;;;;;;;;340623;29;1009;-75
2022/05/04 03:09:22;;;;;;;;;;;;;;;;;;340614;29;973;-75
2022/05/04 03:09:32;;;;;;;;;;;;;;;;;;339452;29;1292;-75
2022/05/04 03:09:42;;;;;;;;;;;;;;;;;;340675;29;930;-75
2022/05/04 03:09:53;;;;;;;;;;;;;;;;;;340530;29;1453;-75
2022/05/04 03:10:04;;;;;;;;;;;;;;;;;;340436;29;1009;-75
2022/05/04 03:10:15;;;;;;;;;;;;;;;;;;340644;29;1049;-75
2022/05/04 03:10:25;;;;;;;;;;;;;;;;;;340623;29;941;-75
2022/05/04 03:11:54;;;;;;;;;;;;;;;;;;340657;29;851;-75
2022/05/04 03:12:03;;;;;;;;;;;;;;;;;;338382;29;1604;-75
2022/05/04 03:12:13;;;;;;;;;;;;;;;;;;339980;29;1418;-75
2022/05/04 03:12:24;;;;;;;;;;;;;;;;;;340628;29;938;-75
2022/05/04 03:12:34;;;;;;;;;;;;;;;;;;339704;29;1224;-75
2022/05/04 03:12:45;;;;;;;;;;;;;;;;;;339383;29;795;-75
2022/05/04 03:12:55;;;;;;;;;;;;;;;;;;339330;29;957;-75
2022/05/04 03:13:05;;;;;;;;;;;;;;;;;;339357;29;889;-75
2022/05/04 03:13:15;;;;;;;;;;;;;;;;;;339345;29;953;-75
2022/05/04 03:13:25;;;;;;;;;;;;;;;;;;339159;29;1771;-75
2022/05/04 03:13:36;;;;;;;;;;;;;;;;;;339372;29;843;-75
2022/05/04 03:13:47;;;;;;;;;;;;;;;;;;339335;29;981;-75
2022/05/04 03:13:57;;;;;;;;;;;;;;;;;;339332;29;918;-75
2022/05/04 03:14:07;;;;;;;;;;;;;;;;;;339317;29;929;-75
2022/05/04 03:14:20;;;;;;;;;;;;;;;;;;339275;29;881;-75
2022/05/04 03:14:30;;;;;;;;;;;;;;;;;;339378;29;976;-75
2022/05/04 03:14:40;;;;;;;;;;;;;;;;;;339360;29;839;-75
2022/05/04 03:14:51;;;;;;;;;;;;;;;;;;339411;29;910;-75
2022/05/04 03:15:01;;;;;;;;;;;;;;;;;;339347;29;978;-75
2022/05/04 03:15:12;;;;;;;;;;;;;;;;;;339323;29;826;-75
2022/05/04 03:15:22;;;;;;;;;;;;;;;;;;339329;29;965;-75
2022/05/04 03:15:32;;;;;;;;;;;;;;;;;;339377;29;858;-75
2022/05/04 03:15:42;;;;;;;;;;;;;;;;;;339359;29;917;-75
2022/05/04 03:15:52;;;;;;;;;;;;;;;;;;339330;29;1269;-75
2022/05/04 03:16:03;;;;;;;;;;;;;;;;;;337860;29;918;-75
2022/05/04 03:16:13;;;;;;;;;;;;;;;;;;337709;29;1019;-75
2022/05/04 03:16:24;;;;;;;;;;;;;;;;;;337893;29;934;-75
2022/05/04 03:16:34;;;;;;;;;;;;;;;;;;337997;29;793;-75
2022/05/04 03:16:45;;;;;;;;;;;;;;;;;;337970;29;973;-75
2022/05/04 03:16:55;;;;;;;;;;;;;;;;;;337905;29;895;-75
2022/05/04 03:17:05;;;;;;;;;;;;;;;;;;337222;29;1329;-75
2022/05/04 03:17:17;;;;;;;;;;;;;;;;;;339228;29;1061;-75
2022/05/04 03:17:27;;;;;;;;;;;;;;;;;;337586;29;1596;-75
2022/05/04 03:17:37;;;;;;;;;;;;;;;;;;337501;29;1705;-75
2022/05/04 03:17:47;;;;;;;;;;;;;;;;;;337741;29;1950;-75
2022/05/04 03:17:58;;;;;;;;;;;;;;;;;;338533;29;803;-75
2022/05/04 03:18:08;;;;;;;;;;;;;;;;;;339197;29;1243;-75
2022/05/04 03:18:18;;;;;;;;;;;;;;;;;;339335;29;969;-75
2022/05/04 03:18:28;;;;;;;;;;;;;;;;;;339288;29;866;-74
2022/05/04 03:18:39;;;;;;;;;;;;;;;;;;339293;29;942;-74
2022/05/04 03:18:49;;;;;;;;;;;;;;;;;;339312;29;1111;-74
2022/05/04 03:18:59;;;;;;;;;;;;;;;;;;339366;29;798;-75
2022/05/04 03:19:09;;;;;;;;;;;;;;;;;;339053;29;968;-75
2022/05/04 03:19:20;;;;;;;;;;;;;;;;;;339373;29;881;-75
2022/05/04 03:19:30;;;;;;;;;;;;;;;;;;339348;29;958;-75
2022/05/04 03:19:41;;;;;;;;;;;;;;;;;;339304;29;953;-75
2022/05/04 03:19:52;;;;;;;;;;;;;;;;;;339321;29;795;-75
2022/05/04 03:20:02;;;;;;;;;;;;;;;;;;339281;29;934;-75
2022/05/04 03:20:12;;;;;;;;;;;;;;;;;;339281;29;1053;-75
2022/05/04 03:20:22;;;;;;;;;;;;;;;;;;339226;29;918;-75
2022/05/04 03:20:33;;;;;;;;;;;;;;;;;;339387;29;832;-75
2022/05/04 03:20:43;;;;;;;;;;;;;;;;;;339291;29;969;-75
2022/05/04 03:20:53;;;;;;;;;;;;;;;;;;339309;29;918;-75
2022/05/04 03:21:03;;;;;;;;;;;;;;;;;;339280;29;834;-75
2022/05/04 03:21:13;;;;;;;;;;;;;;;;;;339239;29;1974;-75
2022/05/04 03:21:23;;;;;;;;;;;;;;;;;;339092;29;1642;-75
2022/05/04 03:21:34;;;;;;;;;;;;;;;;;;339325;29;1005;-75
2022/05/04 03:21:44;;;;;;;;;;;;;;;;;;339254;29;988;-75
2022/05/04 03:21:54;;;;;;;;;;;;;;;;;;339367;29;984;-74
2022/05/04 03:22:05;;;;;;;;;;;;;;;;;;338523;29;1412;-74
2022/05/04 03:22:16;;;;;;;;;;;;;;;;;;339281;29;906;-75
2022/05/04 03:22:26;;;;;;;;;;;;;;;;;;339263;29;1381;-75
2022/05/04 03:22:36;;;;;;;;;;;;;;;;;;339275;29;929;-75
2022/05/04 03:22:46;;;;;;;;;;;;;;;;;;339324;29;783;-75
2022/05/04 03:22:57;;;;;;;;;;;;;;;;;;339382;29;972;-75
2022/05/04 03:23:07;;;;;;;;;;;;;;;;;;339270;29;977;-75
2022/05/04 03:23:17;;;;;;;;;;;;;;;;;;339274;29;843;-75
2022/05/04 03:23:27;;;;;;;;;;;;;;;;;;338301;29;1383;-75
2022/05/04 03:23:38;;;;;;;;;;;;;;;;;;339635;29;1650;-75
2022/05/04 03:23:48;;;;;;;;;;;;;;;;;;340605;29;884;-75
2022/05/04 03:23:58;;;;;;;;;;;;;;;;;;340609;29;918;-75
2022/05/04 03:24:08;;;;;;;;;;;;;;;;;;340605;29;945;-75
2022/05/04 03:24:19;;;;;;;;;;;;;;;;;;340600;29;1010;-75
2022/05/04 03:24:29;;;;;;;;;;;;;;;;;;339230;29;1375;-75
2022/05/04 03:24:39;;;;;;;;;;;;;;;;;;338870;29;1599;-75
2022/05/04 03:24:50;;;;;;;;;;;;;;;;;;340214;29;989;-75
2022/05/04 03:25:00;;;;;;;;;;;;;;;;;;340609;29;834;-75
2022/05/04 03:25:10;;;;;;;;;;;;;;;;;;340543;29;1041;-75
2022/05/04 03:25:21;;;;;;;;;;;;;;;;;;340603;29;946;-75
2022/05/04 03:25:31;;;;;;;;;;;;;;;;;;340643;29;973;-75
2022/05/04 03:25:41;;;;;;;;;;;;;;;;;;340570;29;1594;-75
2022/05/04 03:25:51;;;;;;;;;;;;;;;;;;340615;29;930;-75
2022/05/04 03:26:01;;;;;;;;;;;;;;;;;;340607;29;929;-75
2022/05/04 03:26:11;;;;;;;;;;;;;;;;;;340604;29;1080;-75
2022/05/04 03:26:24;;;;;;;;;;;;;;;;;;340572;29;788;-75
2022/05/04 03:26:35;;;;;;;;;;;;;;;;;;340605;29;926;-75
2022/05/04 03:26:46;;;;;;;;;;;;;;;;;;340596;29;949;-75
2022/05/04 03:26:56;;;;;;;;;;;;;;;;;;340561;29;1147;-75
2022/05/04 03:27:07;;;;;;;;;;;;;;;;;;340602;29;968;-75
2022/05/04 03:27:17;;;;;;;;;;;;;;;;;;340621;29;1024;-75
2022/05/04 03:27:27;;;;;;;;;;;;;;;;;;340559;29;937;-75
2022/05/04 03:27:37;;;;;;;;;;;;;;;;;;340616;29;817;-75
2022/05/04 03:27:48;;;;;;;;;;;;;;;;;;340603;29;966;-75
2022/05/04 03:27:58;;;;;;;;;;;;;;;;;;340660;29;921;-75
2022/05/04 03:28:09;;;;;;;;;;;;;;;;;;340605;29;910;-75
2022/05/04 03:28:19;;;;;;;;;;;;;;;;;;340603;29;992;-75
2022/05/04 03:28:29;;;;;;;;;;;;;;;;;;340610;29;842;-75
2022/05/04 03:28:39;;;;;;;;;;;;;;;;;;340435;29;1139;-75
2022/05/04 03:28:50;;;;;;;;;;;;;;;;;;340583;29;1001;-75
2022/05/04 03:29:00;;;;;;;;;;;;;;;;;;340467;29;1137;-75
2022/05/04 03:29:10;;;;;;;;;;;;;;;;;;340594;29;913;-75
2022/05/04 03:29:21;;;;;;;;;;;;;;;;;;340664;29;850;-75
2022/05/04 03:29:31;;;;;;;;;;;;;;;;;;339334;29;1465;-75
2022/05/04 03:29:41;;;;;;;;;;;;;;;;;;339145;29;1339;-75
2022/05/04 03:29:51;;;;;;;;;;;;;;;;;;339315;29;914;-75
2022/05/04 03:30:02;;;;;;;;;;;;;;;;;;339079;29;1551;-75
2022/05/04 03:30:13;;;;;;;;;;;;;;;;;;339005;29;1775;-75
2022/05/04 03:30:23;;;;;;;;;;;;;;;;;;339193;29;1985;-75
2022/05/04 03:30:33;;;;;;;;;;;;;;;;;;339285;29;941;-75
2022/05/04 03:30:43;;;;;;;;;;;;;;;;;;339308;29;926;-75
2022/05/04 03:30:53;;;;;;;;;;;;;;;;;;339254;29;1247;-75
2022/05/04 03:31:03;;;;;;;;;;;;;;;;;;339331;29;905;-75
2022/05/04 03:31:14;;;;;;;;;;;;;;;;;;339152;29;1215;-75
2022/05/04 03:31:24;;;;;;;;;;;;;;;;;;338946;29;1628;-75
2022/05/04 03:31:35;;;;;;;;;;;;;;;;;;339128;29;1547;-75
2022/05/04 03:31:45;;;;;;;;;;;;;;;;;;339294;29;977;-75
2022/05/04 03:31:55;;;;;;;;;;;;;;;;;;338386;29;1455;-75
2022/05/04 03:32:06;;;;;;;;;;;;;;;;;;340381;29;1022;-75
2022/05/04 03:32:16;;;;;;;;;;;;;;;;;;340504;29;1017;-75
2022/05/04 03:32:26;;;;;;;;;;;;;;;;;;340622;29;811;-75
2022/05/04 03:32:36;;;;;;;;;;;;;;;;;;340635;29;985;-75
2022/05/04 03:32:47;;;;;;;;;;;;;;;;;;340433;29;1148;-75
2022/05/04 03:32:57;;;;;;;;;;;;;;;;;;340599;29;809;-75
2022/05/04 03:33:07;;;;;;;;;;;;;;;;;;340557;29;922;-75
2022/05/04 03:33:17;;;;;;;;;;;;;;;;;;340642;29;790;-75
2022/05/04 03:33:28;;;;;;;;;;;;;;;;;;340583;29;930;-75
2022/05/04 03:33:38;;;;;;;;;;;;;;;;;;340646;29;838;-75
2022/05/04 03:33:49;;;;;;;;;;;;;;;;;;340609;29;1012;-75
2022/05/04 03:33:59;;;;;;;;;;;;;;;;;;340595;29;997;-75
2022/05/04 03:34:09;;;;;;;;;;;;;;;;;;340641;29;1036;-75
2022/05/04 03:34:20;;;;;;;;;;;;;;;;;;340590;29;921;-75
2022/05/04 03:34:30;;;;;;;;;;;;;;;;;;340631;29;976;-75
2022/05/04 03:34:40;;;;;;;;;;;;;;;;;;340659;29;842;-75
2022/05/04 03:34:51;;;;;;;;;;;;;;;;;;340606;29;913;-75
2022/05/04 03:35:01;;;;;;;;;;;;;;;;;;340566;29;989;-75
2022/05/04 03:35:11;;;;;;;;;;;;;;;;;;340628;29;795;-75
2022/05/04 03:35:21;;;;;;;;;;;;;;;;;;340510;29;1166;-75
2022/05/04 03:35:32;;;;;;;;;;;;;;;;;;340632;29;984;-75
2022/05/04 03:35:42;;;;;;;;;;;;;;;;;;340380;29;1142;-75
2022/05/04 03:35:52;;;;;;;;;;;;;;;;;;340601;29;855;-75
2022/05/04 03:36:02;;;;;;;;;;;;;;;;;;340612;29;926;-75
2022/05/04 03:36:13;;;;;;;;;;;;;;;;;;340613;29;913;-75
2022/05/04 03:36:23;;;;;;;;;;;;;;;;;;340574;29;973;-75
2022/05/04 03:36:35;;;;;;;;;;;;;;;;;;340605;29;985;-75
2022/05/04 03:36:46;;;;;;;;;;;;;;;;;;340588;29;981;-75
2022/05/04 03:36:58;;;;;;;;;;;;;;;;;;339634;29;1455;-75
2022/05/04 03:37:08;;;;;;;;;;;;;;;;;;340553;29;961;-75
2022/05/04 03:37:19;;;;;;;;;;;;;;;;;;339888;29;1638;-75
2022/05/04 03:37:29;;;;;;;;;;;;;;;;;;338816;29;1709;-75
2022/05/04 03:37:39;;;;;;;;;;;;;;;;;;339298;29;1009;-75
2022/05/04 03:37:49;;;;;;;;;;;;;;;;;;339125;29;1014;-75
2022/05/04 03:38:00;;;;;;;;;;;;;;;;;;339321;29;898;-75
2022/05/04 03:38:10;;;;;;;;;;;;;;;;;;339260;29;1017;-75
2022/05/04 03:38:20;;;;;;;;;;;;;;;;;;339327;29;795;-75
2022/05/04 03:38:30;;;;;;;;;;;;;;;;;;338425;29;1420;-75
2022/05/04 03:38:40;;;;;;;;;;;;;;;;;;339099;29;1441;-75
2022/05/04 03:38:51;;;;;;;;;;;;;;;;;;340361;29;1036;-75
2022/05/04 03:39:02;;;;;;;;;;;;;;;;;;340524;29;1048;-75
2022/05/04 03:39:12;;;;;;;;;;;;;;;;;;340523;29;1008;-75
2022/05/04 03:39:22;;;;;;;;;;;;;;;;;;340624;29;988;-75
2022/05/04 03:39:33;;;;;;;;;;;;;;;;;;340598;29;953;-75
2022/05/04 03:39:43;;;;;;;;;;;;;;;;;;340395;29;1143;-75
2022/05/04 03:39:53;;;;;;;;;;;;;;;;;;340631;29;952;-75
2022/05/04 03:40:03;;;;;;;;;;;;;;;;;;340623;29;992;-75
2022/05/04 03:40:15;;;;;;;;;;;;;;;;;;340091;29;1319;-75
2022/05/04 03:40:25;;;;;;;;;;;;;;;;;;340641;29;930;-75
2022/05/04 03:40:36;;;;;;;;;;;;;;;;;;340573;29;918;-75
2022/05/04 03:40:46;;;;;;;;;;;;;;;;;;340610;29;630;-75
2022/05/04 03:40:56;;;;;;;;;;;;;;;;;;340603;29;929;-75
2022/05/04 03:41:06;;;;;;;;;;;;;;;;;;340532;29;1200;-75
2022/05/04 03:41:17;;;;;;;;;;;;;;;;;;340477;29;1972;-75
2022/05/04 03:41:27;;;;;;;;;;;;;;;;;;339500;29;1582;-75
2022/05/04 03:41:38;;;;;;;;;;;;;;;;;;339282;29;965;-75
2022/05/04 03:41:49;;;;;;;;;;;;;;;;;;339306;29;811;-75
2022/05/04 03:41:59;;;;;;;;;;;;;;;;;;339350;29;776;-75
2022/05/04 03:42:12;;;;;;;;;;;;;;;;;;339366;29;874;-75
2022/05/04 03:42:22;;;;;;;;;;;;;;;;;;339300;29;864;-75
2022/05/04 03:42:32;;;;;;;;;;;;;;;;;;339283;29;981;-75
2022/05/04 03:42:42;;;;;;;;;;;;;;;;;;339317;29;921;-75
2022/05/04 03:42:53;;;;;;;;;;;;;;;;;;339267;29;1013;-75
2022/05/04 03:43:03;;;;;;;;;;;;;;;;;;339311;29;854;-75
2022/05/04 03:43:13;;;;;;;;;;;;;;;;;;339305;29;914;-75
2022/05/04 03:43:23;;;;;;;;;;;;;;;;;;338887;29;1584;-75
2022/05/04 03:43:33;;;;;;;;;;;;;;;;;;339308;29;1368;-75
2022/05/04 03:43:44;;;;;;;;;;;;;;;;;;340612;29;914;-75
2022/05/04 03:43:54;;;;;;;;;;;;;;;;;;340605;29;925;-75
2022/05/04 03:44:05;;;;;;;;;;;;;;;;;;340635;29;793;-75
2022/05/04 03:44:16;;;;;;;;;;;;;;;;;;340565;29;1001;-75
2022/05/04 03:44:26;;;;;;;;;;;;;;;;;;340626;29;952;-75
2022/05/04 03:44:36;;;;;;;;;;;;;;;;;;340630;29;886;-74
2022/05/04 03:44:46;;;;;;;;;;;;;;;;;;340601;29;921;-74
2022/05/04 03:44:57;;;;;;;;;;;;;;;;;;340600;29;830;-74
2022/05/04 03:45:07;;;;;;;;;;;;;;;;;;340573;29;953;-74
2022/05/04 03:45:20;;;;;;;;;;;;;;;;;;340599;29;984;-74
2022/05/04 03:45:31;;;;;;;;;;;;;;;;;;340558;29;1025;-75
2022/05/04 03:45:41;;;;;;;;;;;;;;;;;;340510;29;1010;-75
2022/05/04 03:45:51;;;;;;;;;;;;;;;;;;340384;29;1025;-75
2022/05/04 03:46:11;;;;;;;;;;;;;;;;;;340657;29;905;-75
2022/05/04 03:46:23;;;;;;;;;;;;;;;;;;340630;29;864;-75
2022/05/04 03:47:00;;;;;;;;;;;;;;;;;;340636;29;961;-75
2022/05/04 03:47:10;;;;;;;;;;;;;;;;;;335811;29;1108;-75
2022/05/04 03:47:20;;;;;;;;;;;;;;;;;;340609;29;969;-75
2022/05/04 03:47:31;;;;;;;;;;;;;;;;;;340608;29;850;-75
2022/05/04 03:47:41;;;;;;;;;;;;;;;;;;340520;29;985;-75
2022/05/04 03:47:51;;;;;;;;;;;;;;;;;;340485;29;1097;-74
2022/05/04 03:48:01;;;;;;;;;;;;;;;;;;340635;29;977;-74
2022/05/04 03:48:11;;;;;;;;;;;;;;;;;;340594;29;906;-75
2022/05/04 03:48:21;;;;;;;;;;;;;;;;;;340644;29;834;-75
2022/05/04 03:48:32;;;;;;;;;;;;;;;;;;338847;29;1470;-75
2022/05/04 03:48:43;;;;;;;;;;;;;;;;;;340573;29;981;-75
2022/05/04 03:48:54;;;;;;;;;;;;;;;;;;340624;29;874;-75
2022/05/04 03:49:04;;;;;;;;;;;;;;;;;;340595;29;791;-75
2022/05/04 03:49:15;;;;;;;;;;;;;;;;;;340622;29;921;-75
2022/05/04 03:49:25;;;;;;;;;;;;;;;;;;340592;29;1000;-75
2022/05/04 03:49:36;;;;;;;;;;;;;;;;;;340498;29;918;-75
2022/05/04 03:49:46;;;;;;;;;;;;;;;;;;340341;29;1151;-75
2022/05/04 03:49:56;;;;;;;;;;;;;;;;;;340395;29;1129;-75
2022/05/04 03:50:06;;;;;;;;;;;;;;;;;;340392;29;1077;-75
2022/05/04 03:50:17;;;;;;;;;;;;;;;;;;340610;29;775;-75
2022/05/04 03:50:27;;;;;;;;;;;;;;;;;;340403;29;1278;-75
2022/05/04 03:50:37;;;;;;;;;;;;;;;;;;340398;29;1101;-75
2022/05/04 03:50:47;;;;;;;;;;;;;;;;;;340586;29;948;-75
2022/05/04 03:50:57;;;;;;;;;;;;;;;;;;340633;29;893;-75
2022/05/04 03:51:08;;;;;;;;;;;;;;;;;;340547;29;923;-75
2022/05/04 03:51:20;;;;;;;;;;;;;;;;;;340639;29;787;-75
2022/05/04 03:51:30;;;;;;;;;;;;;;;;;;338974;29;1638;-75
2022/05/04 03:51:40;;;;;;;;;;;;;;;;;;338898;29;1779;-75
2022/05/04 03:51:51;;;;;;;;;;;;;;;;;;339160;29;1989;-75
2022/05/04 03:52:02;;;;;;;;;;;;;;;;;;339266;29;1046;-75
2022/05/04 03:52:12;;;;;;;;;;;;;;;;;;339125;29;964;-75
2022/05/04 03:52:22;;;;;;;;;;;;;;;;;;339304;29;941;-75
2022/05/04 03:52:32;;;;;;;;;;;;;;;;;;339298;29;1003;-75
2022/05/04 03:52:43;;;;;;;;;;;;;;;;;;339237;29;942;-75
2022/05/04 03:52:53;;;;;;;;;;;;;;;;;;339332;29;910;-75
2022/05/04 03:53:03;;;;;;;;;;;;;;;;;;339122;29;1305;-75
2022/05/04 03:53:13;;;;;;;;;;;;;;;;;;339229;29;1017;-75
2022/05/04 03:53:24;;;;;;;;;;;;;;;;;;339287;29;960;-75
2022/05/04 03:53:34;;;;;;;;;;;;;;;;;;338581;29;1435;-75
2022/05/04 03:53:44;;;;;;;;;;;;;;;;;;340514;29;1013;-75
2022/05/04 03:53:55;;;;;;;;;;;;;;;;;;340557;29;1017;-75
2022/05/04 03:54:05;;;;;;;;;;;;;;;;;;340365;29;1225;-75
2022/05/04 03:54:15;;;;;;;;;;;;;;;;;;338925;29;1419;-75
2022/05/04 03:54:26;;;;;;;;;;;;;;;;;;339075;29;1366;-75
2022/05/04 03:54:36;;;;;;;;;;;;;;;;;;340484;29;1048;-75
2022/05/04 03:54:47;;;;;;;;;;;;;;;;;;340530;29;814;-75
2022/05/04 03:54:58;;;;;;;;;;;;;;;;;;340614;29;972;-75
2022/05/04 03:55:08;;;;;;;;;;;;;;;;;;340608;29;973;-75
2022/05/04 03:55:18;;;;;;;;;;;;;;;;;;340588;29;986;-75
2022/05/04 03:55:28;;;;;;;;;;;;;;;;;;340621;29;850;-75
2022/05/04 03:55:39;;;;;;;;;;;;;;;;;;340567;29;973;-75
2022/05/04 03:55:52;;;;;;;;;;;;;;;;;;340486;29;856;-75
2022/05/04 03:56:02;;;;;;;;;;;;;;;;;;340591;29;968;-75
2022/05/04 03:56:12;;;;;;;;;;;;;;;;;;340578;29;1028;-75
2022/05/04 03:56:22;;;;;;;;;;;;;;;;;;340598;29;933;-75
2022/05/04 03:56:33;;;;;;;;;;;;;;;;;;340609;29;842;-75
2022/05/04 03:56:44;;;;;;;;;;;;;;;;;;339099;29;1555;-75
2022/05/04 03:56:54;;;;;;;;;;;;;;;;;;340395;29;973;-75
2022/05/04 03:57:05;;;;;;;;;;;;;;;;;;340613;29;835;-75
2022/05/04 03:57:15;;;;;;;;;;;;;;;;;;340385;29;1247;-75
2022/05/04 03:57:25;;;;;;;;;;;;;;;;;;340567;29;1573;-75
2022/05/04 03:57:35;;;;;;;;;;;;;;;;;;340569;29;965;-75
2022/05/04 03:57:46;;;;;;;;;;;;;;;;;;340525;29;771;-75
2022/05/04 03:57:56;;;;;;;;;;;;;;;;;;340521;29;961;-75
2022/05/04 03:58:06;;;;;;;;;;;;;;;;;;340486;29;1053;-75
2022/05/04 03:58:17;;;;;;;;;;;;;;;;;;340560;29;811;-75
2022/05/04 03:58:27;;;;;;;;;;;;;;;;;;340548;29;965;-75
2022/05/04 03:58:37;;;;;;;;;;;;;;;;;;340367;29;998;-75
2022/05/04 03:58:47;;;;;;;;;;;;;;;;;;340593;29;922;-75
2022/05/04 03:58:57;;;;;;;;;;;;;;;;;;340519;29;863;-75
2022/05/04 03:59:08;;;;;;;;;;;;;;;;;;340369;29;1046;-75
2022/05/04 03:59:18;;;;;;;;;;;;;;;;;;340595;29;930;-75
2022/05/04 03:59:29;;;;;;;;;;;;;;;;;;340561;29;1028;-75
2022/05/04 03:59:39;;;;;;;;;;;;;;;;;;340523;29;926;-74
2022/05/04 03:59:50;;;;;;;;;;;;;;;;;;340362;29;1035;-75
2022/05/04 04:00:00;;;;;;;;;;;;;;;;;;338667;29;1800;-75
2022/05/04 04:00:10;;;;;;;;;;;;;;;;;;338504;29;1595;-75
2022/05/04 04:00:20;;;;;;;;;;;;;;;;;;338677;29;2463;-75
2022/05/04 04:00:31;;;;;;;;;;;;;;;;;;339475;29;1500;-75
2022/05/04 04:00:41;;;;;;;;;;;;;;;;;;340610;29;858;-75
2022/05/04 04:00:51;;;;;;;;;;;;;;;;;;340525;29;914;-75
2022/05/04 04:01:01;;;;;;;;;;;;;;;;;;340589;29;765;-75
2022/05/04 04:01:12;;;;;;;;;;;;;;;;;;340543;29;1907;-75
2022/05/04 04:01:22;;;;;;;;;;;;;;;;;;340524;29;913;-75
2022/05/04 04:01:32;;;;;;;;;;;;;;;;;;340564;29;926;-75
2022/05/04 04:01:43;;;;;;;;;;;;;;;;;;339569;29;1427;-75
2022/05/04 04:01:53;;;;;;;;;;;;;;;;;;339200;29;1531;-81
2022/05/04 04:02:03;;;;;;;;;;;;;;;;;;337855;29;1294;-79
2022/05/04 04:02:13;;;;;;;;;;;;;;;;;;339462;29;1526;-79
2022/05/04 04:02:24;;;;;;;;;;;;;;;;;;340574;29;930;-75
2022/05/04 04:02:34;;;;;;;;;;;;;;;;;;340596;29;846;-74
2022/05/04 04:02:44;;;;;;;;;;;;;;;;;;339582;29;1704;-74
2022/05/04 04:02:54;;;;;;;;;;;;;;;;;;338475;29;1691;-75
2022/05/04 04:03:04;;;;;;;;;;;;;;;;;;339140;29;2294;-75
2022/05/04 04:03:14;;;;;;;;;;;;;;;;;;338409;29;1888;-74
2022/05/04 04:03:25;;;;;;;;;;;;;;;;;;339106;29;2159;-74
2022/05/04 04:03:35;;;;;;;;;;;;;;;;;;339121;29;1607;-74
2022/05/04 04:03:46;;;;;;;;;;;;;;;;;;339070;29;1631;-74
2022/05/04 04:03:56;;;;;;;;;;;;;;;;;;338942;29;2151;-74
2022/05/04 04:04:07;;;;;;;;;;;;;;;;;;339222;29;949;-74
2022/05/04 04:04:17;;;;;;;;;;;;;;;;;;339295;29;921;-74
2022/05/04 04:04:27;;;;;;;;;;;;;;;;;;339478;29;958;-81
2022/05/04 04:04:37;;;;;;;;;;;;;;;;;;340613;29;840;-79
2022/05/04 04:04:47;;;;;;;;;;;;;;;;;;340578;29;914;-80
2022/05/04 04:04:58;;;;;;;;;;;;;;;;;;340504;29;973;-80
2022/05/04 04:05:08;;;;;;;;;;;;;;;;;;340605;29;973;-78
2022/05/04 04:05:19;;;;;;;;;;;;;;;;;;339202;29;1911;-77
2022/05/04 04:05:29;;;;;;;;;;;;;;;;;;338391;29;1458;-77
2022/05/04 04:05:40;;;;;;;;;;;;;;;;;;338108;29;1484;-77
2022/05/04 04:05:50;;;;;;;;;;;;;;;;;;337963;29;1013;-77
2022/05/04 04:06:01;;;;;;;;;;;;;;;;;;338001;29;1691;-77
2022/05/04 04:06:11;;;;;;;;;;;;;;;;;;340524;29;933;-77
2022/05/04 04:06:22;;;;;;;;;;;;;;;;;;340538;29;909;-77
2022/05/04 04:06:32;;;;;;;;;;;;;;;;;;340572;29;1004;-77
2022/05/04 04:06:42;;;;;;;;;;;;;;;;;;340595;29;875;-77
2022/05/04 04:06:53;;;;;;;;;;;;;;;;;;340533;29;939;-77
2022/05/04 04:07:03;;;;;;;;;;;;;;;;;;340351;29;987;-77
2022/05/04 04:07:13;;;;;;;;;;;;;;;;;;340572;29;942;-77
2022/05/04 04:07:23;;;;;;;;;;;;;;;;;;339782;29;1621;-77
2022/05/04 04:07:34;;;;;;;;;;;;;;;;;;339260;29;914;-77
2022/05/04 04:07:44;;;;;;;;;;;;;;;;;;339264;29;1000;-77
2022/05/04 04:07:54;;;;;;;;;;;;;;;;;;339286;29;832;-77
2022/05/04 04:08:04;;;;;;;;;;;;;;;;;;339017;29;1105;-77
2022/05/04 04:08:15;;;;;;;;;;;;;;;;;;339226;29;977;-77
2022/05/04 04:08:25;;;;;;;;;;;;;;;;;;339242;29;787;-77
2022/05/04 04:08:35;;;;;;;;;;;;;;;;;;339247;29;981;-77
2022/05/04 04:08:46;;;;;;;;;;;;;;;;;;339227;29;886;-77
2022/05/04 04:08:56;;;;;;;;;;;;;;;;;;339332;29;866;-77
2022/05/04 04:09:06;;;;;;;;;;;;;;;;;;338993;29;966;-77
2022/05/04 04:09:16;;;;;;;;;;;;;;;;;;339165;29;1769;-77
2022/05/04 04:09:26;;;;;;;;;;;;;;;;;;339224;29;770;-77
2022/05/04 04:09:37;;;;;;;;;;;;;;;;;;339289;29;895;-77
2022/05/04 04:09:47;;;;;;;;;;;;;;;;;;339262;29;938;-77
2022/05/04 04:09:57;;;;;;;;;;;;;;;;;;339325;29;823;-77
2022/05/04 04:10:08;;;;;;;;;;;;;;;;;;339205;29;961;-77
2022/05/04 04:10:18;;;;;;;;;;;;;;;;;;339223;29;1406;-77
2022/05/04 04:10:28;;;;;;;;;;;;;;;;;;339022;29;966;-77
2022/05/04 04:10:38;;;;;;;;;;;;;;;;;;339269;29;993;-77
2022/05/04 04:10:49;;;;;;;;;;;;;;;;;;339225;29;807;-77
2022/05/04 04:10:59;;;;;;;;;;;;;;;;;;339221;29;1018;-77
2022/05/04 04:11:10;;;;;;;;;;;;;;;;;;339266;29;945;-77
2022/05/04 04:11:21;;;;;;;;;;;;;;;;;;339273;29;890;-77
2022/05/04 04:11:31;;;;;;;;;;;;;;;;;;337668;29;1681;-77
2022/05/04 04:11:41;;;;;;;;;;;;;;;;;;337855;29;866;-77
2022/05/04 04:11:52;;;;;;;;;;;;;;;;;;337903;29;870;-77
2022/05/04 04:12:02;;;;;;;;;;;;;;;;;;337132;29;1642;-77
2022/05/04 04:12:12;;;;;;;;;;;;;;;;;;337702;29;1709;-77
2022/05/04 04:12:23;;;;;;;;;;;;;;;;;;338054;29;1776;-77
2022/05/04 04:12:33;;;;;;;;;;;;;;;;;;338100;29;910;-77
2022/05/04 04:12:43;;;;;;;;;;;;;;;;;;337852;29;1019;-77
2022/05/04 04:12:53;;;;;;;;;;;;;;;;;;337839;29;910;-77
2022/05/04 04:13:06;;;;;;;;;;;;;;;;;;337849;29;746;-77
2022/05/04 04:13:16;;;;;;;;;;;;;;;;;;337877;29;942;-77
2022/05/04 04:13:27;;;;;;;;;;;;;;;;;;338531;29;1057;-77
2022/05/04 04:13:38;;;;;;;;;;;;;;;;;;339219;29;883;-78
2022/05/04 04:13:48;;;;;;;;;;;;;;;;;;339253;29;1025;-76
2022/05/04 04:13:58;;;;;;;;;;;;;;;;;;339106;29;983;-75
2022/05/04 04:14:09;;;;;;;;;;;;;;;;;;339266;29;874;-76
2022/05/04 04:14:20;;;;;;;;;;;;;;;;;;339245;29;907;-76
2022/05/04 04:14:30;;;;;;;;;;;;;;;;;;339095;29;918;-76
2022/05/04 04:14:40;;;;;;;;;;;;;;;;;;339240;29;919;-77